Terminal Aerodrome Forecast
Issued by NWS

Home | Current Version | Previous Version | Text Only | Print | Product List | Glossary On
Versions: 1 2 3 4 5 6 7 8 9 10 11 12 13 14 15 16 17
000
FTUS43 KDLH 260938 AAB
TAFBRD
TAF AMD
KBRD 260938Z 2610/2706 15006KT P6SM OVC040
     FM261300 18005KT P6SM VCSH BKN020 OVC040
     FM261800 21009KT P6SM BKN250
     FM262200 24008KT P6SM VCSH SCT250=

USA.gov is the U.S. government's official web portal to all federal, state and local government web resources and services.